createdAt,value
2023-04-08T00:00:36.002Z,8.90
2023-04-08T00:03:13.142Z,8.90
2023-04-08T00:05:44.306Z,8.80
2023-04-08T00:08:18.690Z,8.80
2023-04-08T00:10:51.464Z,8.80
2023-04-08T00:13:29.301Z,8.70
2023-04-08T00:15:59.789Z,8.70
2023-04-08T00:18:36.743Z,8.60
2023-04-08T00:21:09.790Z,8.60
2023-04-08T00:23:42.766Z,8.60
2023-04-08T00:26:23.943Z,8.60
2023-04-08T00:29:04.672Z,8.60
2023-04-08T00:31:45.162Z,8.60
2023-04-08T00:34:16.449Z,8.50
2023-04-08T00:36:50.516Z,8.50
2023-04-08T00:39:22.574Z,8.50
2023-04-08T00:42:00.212Z,8.40
2023-04-08T00:44:45.690Z,8.40
2023-04-08T00:47:24.166Z,8.40
2023-04-08T00:49:54.621Z,8.40
2023-04-08T00:52:35.714Z,8.40
2023-04-08T00:55:16.868Z,8.40
2023-04-08T00:57:57.674Z,8.30
2023-04-08T01:00:39.382Z,8.30
2023-04-08T01:03:22.925Z,8.30
2023-04-08T01:06:01.806Z,8.40
2023-04-08T01:08:37.513Z,8.40
2023-04-08T01:11:17.896Z,8.40
2023-04-08T01:13:56.340Z,8.50
2023-04-08T01:16:33.903Z,8.50
2023-04-08T01:19:08.420Z,8.50
2023-04-08T01:21:39.844Z,8.50
2023-04-08T01:24:20.288Z,8.40
2023-04-08T01:26:58.464Z,8.40
2023-04-08T01:29:29.048Z,8.40
2023-04-08T01:32:06.247Z,8.50
2023-04-08T01:34:39.321Z,8.50
2023-04-08T01:37:13.774Z,8.50
2023-04-08T01:39:49.408Z,8.50
2023-04-08T01:42:26.572Z,8.50
2023-04-08T01:44:59.471Z,8.40
2023-04-08T01:47:33.719Z,8.40
2023-04-08T01:50:09.265Z,8.40
2023-04-08T01:52:49.335Z,8.40
2023-04-08T01:55:29.228Z,8.40
2023-04-08T01:58:08.108Z,8.40
2023-04-08T02:00:48.020Z,8.40
2023-04-08T02:03:28.344Z,8.40
2023-04-08T02:06:02.517Z,8.40
2023-04-08T02:08:37.346Z,8.30
2023-04-08T02:11:14.266Z,8.30
2023-04-08T02:13:50.384Z,8.30
2023-04-08T02:16:32.142Z,8.30
2023-04-08T02:19:16.233Z,8.30
2023-04-08T02:21:54.260Z,8.30
2023-04-08T02:24:34.299Z,8.20
2023-04-08T02:27:08.942Z,8.20
2023-04-08T02:29:47.644Z,8.10
2023-04-08T02:32:23.149Z,8.10
2023-04-08T02:35:00.348Z,8.10
2023-04-08T02:37:32.696Z,8.10
2023-04-08T02:40:01.901Z,8.10
2023-04-08T02:42:33.188Z,8.10
2023-04-08T02:45:16.174Z,8.10
2023-04-08T02:47:57.779Z,8.10
2023-04-08T02:50:32.131Z,8.00
2023-04-08T02:53:09.123Z,8.00
2023-04-08T02:55:41.237Z,8.00
2023-04-08T02:58:16.823Z,8.00
2023-04-08T03:00:53.997Z,8.00
2023-04-08T03:03:32.895Z,8.00
2023-04-08T03:06:09.001Z,8.00
2023-04-08T03:08:41.530Z,8.00
2023-04-08T03:11:15.464Z,8.00
2023-04-08T03:13:50.167Z,8.00
2023-04-08T03:16:33.002Z,7.90
2023-04-08T03:19:07.680Z,8.00
2023-04-08T03:21:42.274Z,7.90
2023-04-08T03:24:13.912Z,7.90
2023-04-08T03:26:47.822Z,7.90
2023-04-08T03:29:35.041Z,7.90
2023-04-08T03:32:22.862Z,7.90
2023-04-08T03:34:56.231Z,7.80
2023-04-08T03:37:36.511Z,7.70
2023-04-08T03:40:07.754Z,7.70
2023-04-08T03:42:44.154Z,7.60
2023-04-08T03:45:19.969Z,7.60
2023-04-08T03:48:03.198Z,7.70
2023-04-08T03:50:36.059Z,7.60
2023-04-08T03:53:06.741Z,7.60
2023-04-08T03:55:50.833Z,7.60
2023-04-08T03:58:28.810Z,7.60
2023-04-08T04:01:02.841Z,7.50
2023-04-08T04:03:49.939Z,7.50
2023-04-08T04:06:23.268Z,7.50
2023-04-08T04:08:58.826Z,7.40
2023-04-08T04:11:33.161Z,7.40
2023-04-08T04:14:13.318Z,7.40
2023-04-08T04:16:52.924Z,7.40
2023-04-08T04:19:30.452Z,7.30
2023-04-08T04:22:02.051Z,7.30
2023-04-08T04:24:33.197Z,7.30
2023-04-08T04:27:04.062Z,7.20
2023-04-08T04:29:38.450Z,7.20
2023-04-08T04:32:07.521Z,7.20
2023-04-08T04:34:42.437Z,7.20
2023-04-08T04:37:16.784Z,7.20
2023-04-08T04:39:53.752Z,7.10
2023-04-08T04:42:26.339Z,7.20
2023-04-08T04:45:12.931Z,7.20
2023-04-08T04:47:49.557Z,7.20
2023-04-08T04:50:32.335Z,7.10
2023-04-08T04:53:06.069Z,7.10
2023-04-08T04:55:39.122Z,7.10
2023-04-08T04:58:24.756Z,7.10
2023-04-08T05:01:04.618Z,7.10
2023-04-08T05:03:35.312Z,7.00
2023-04-08T05:06:13.301Z,7.00
2023-04-08T05:08:53.025Z,7.10
2023-04-08T05:11:28.207Z,7.10
2023-04-08T05:14:01.566Z,7.10
2023-04-08T05:16:33.535Z,7.10
2023-04-08T05:19:12.685Z,7.10
2023-04-08T05:21:54.810Z,7.10
2023-04-08T05:24:29.577Z,7.20
2023-04-08T05:27:02.475Z,7.20
2023-04-08T05:29:42.329Z,7.20
2023-04-08T05:32:17.411Z,7.20
2023-04-08T05:34:53.714Z,7.20
2023-04-08T05:37:35.901Z,7.20
2023-04-08T05:40:07.274Z,7.30
2023-04-08T05:42:47.619Z,7.30
2023-04-08T05:45:20.994Z,7.40
2023-04-08T05:47:52.252Z,7.40
2023-04-08T05:50:26.786Z,7.50
2023-04-08T05:53:02.818Z,7.50
2023-04-08T05:55:41.866Z,7.50
2023-04-08T05:58:10.528Z,7.50
2023-04-08T06:00:43.295Z,7.50
2023-04-08T06:03:20.702Z,7.60
2023-04-08T06:05:55.387Z,7.60
2023-04-08T06:08:29.835Z,7.60
2023-04-08T06:11:06.858Z,7.60
2023-04-08T06:13:41.921Z,7.70
2023-04-08T06:16:21.236Z,7.70
2023-04-08T06:18:59.130Z,7.70
2023-04-08T06:21:44.137Z,7.80
2023-04-08T06:24:31.241Z,7.80
2023-04-08T06:27:04.062Z,7.90
2023-04-08T06:29:40.602Z,7.90
2023-04-08T06:32:22.820Z,7.90
2023-04-08T06:35:03.328Z,7.90
2023-04-08T06:37:41.030Z,8.00
2023-04-08T06:40:14.033Z,8.00
2023-04-08T06:42:45.092Z,8.10
2023-04-08T06:45:26.303Z,8.10
2023-04-08T06:47:59.947Z,8.20
2023-04-08T06:50:39.722Z,8.30
2023-04-08T06:53:21.696Z,8.30
2023-04-08T06:56:08.799Z,8.30
2023-04-08T06:58:44.975Z,8.40
2023-04-08T07:01:16.389Z,8.40
2023-04-08T07:03:50.538Z,8.40
2023-04-08T07:06:24.577Z,8.50
2023-04-08T07:09:01.855Z,8.50
2023-04-08T07:11:33.841Z,8.50
2023-04-08T07:14:05.365Z,8.50
2023-04-08T07:16:36.355Z,8.50
2023-04-08T07:19:05.658Z,8.50
2023-04-08T07:21:39.095Z,8.50
2023-04-08T07:24:14.355Z,8.50
2023-04-08T07:26:59.214Z,8.60
2023-04-08T07:29:40.623Z,8.60
2023-04-08T07:32:17.392Z,8.70
2023-04-08T07:34:55.577Z,8.70
2023-04-08T07:37:27.838Z,8.60
2023-04-08T07:40:02.669Z,8.60
2023-04-08T07:42:50.131Z,8.60
2023-04-08T07:45:21.276Z,8.60
2023-04-08T07:47:58.904Z,8.60
2023-04-08T07:50:36.537Z,8.60
2023-04-08T07:53:26.451Z,8.70
2023-04-08T07:56:03.020Z,8.60
2023-04-08T07:58:48.748Z,8.70
2023-04-08T08:01:29.132Z,8.70
2023-04-08T08:04:06.062Z,8.70
2023-04-08T08:06:46.778Z,8.80
2023-04-08T08:09:27.366Z,8.80
2023-04-08T08:11:58.197Z,8.90
2023-04-08T08:14:38.241Z,8.90
2023-04-08T08:17:11.393Z,8.90
2023-04-08T08:19:48.846Z,8.90
2023-04-08T08:22:22.582Z,8.90
2023-04-08T08:25:02.175Z,8.90
2023-04-08T08:27:31.109Z,8.90
2023-04-08T08:30:24.666Z,8.90
2023-04-08T08:32:58.921Z,8.90
2023-04-08T08:35:34.067Z,8.80
2023-04-08T08:38:10.335Z,8.70
2023-04-08T08:40:45.569Z,8.70
2023-04-08T08:43:16.026Z,8.70
2023-04-08T08:45:56.553Z,8.70
2023-04-08T08:48:29.440Z,8.80
2023-04-08T08:51:09.691Z,8.90
2023-04-08T08:53:38.612Z,8.90
2023-04-08T08:56:18.401Z,8.90
2023-04-08T08:58:56.621Z,9.00
2023-04-08T09:01:51.142Z,9.00
2023-04-08T09:04:27.580Z,9.00
2023-04-08T09:07:20.697Z,9.00
2023-04-08T09:09:54.820Z,9.00
2023-04-08T09:12:26.804Z,9.00
2023-04-08T09:15:06.622Z,9.00
2023-04-08T09:17:42.515Z,9.00
2023-04-08T09:20:16.458Z,9.00
2023-04-08T09:23:09.184Z,9.00
2023-04-08T09:25:41.450Z,9.00
2023-04-08T09:28:24.319Z,9.10
2023-04-08T09:30:58.586Z,9.10
2023-04-08T09:33:38.187Z,9.20
2023-04-08T09:36:18.626Z,9.20
2023-04-08T09:38:53.000Z,9.30
2023-04-08T09:41:30.054Z,9.30
2023-04-08T09:44:01.855Z,9.40
2023-04-08T09:46:44.013Z,9.30
2023-04-08T09:49:31.518Z,9.40
2023-04-08T09:52:12.543Z,9.50
2023-04-08T09:54:55.253Z,9.60
2023-04-08T09:57:45.403Z,9.60
2023-04-08T10:00:26.445Z,9.60
2023-04-08T10:03:03.172Z,9.60
2023-04-08T10:05:42.133Z,9.70
2023-04-08T10:08:17.826Z,9.80
2023-04-08T10:10:48.591Z,9.90
2023-04-08T10:13:23.033Z,10.00
2023-04-08T10:15:57.581Z,10.10
2023-04-08T10:18:37.304Z,10.10
2023-04-08T10:21:35.767Z,10.10
2023-04-08T10:24:10.111Z,10.10
2023-04-08T10:26:47.279Z,10.20
2023-04-08T10:29:39.572Z,10.10
2023-04-08T10:32:18.889Z,10.10
2023-04-08T10:34:57.113Z,10.10
2023-04-08T10:37:31.161Z,10.20
2023-04-08T10:40:10.674Z,10.20
2023-04-08T10:42:44.429Z,10.20
2023-04-08T10:45:27.831Z,10.30
2023-04-08T10:47:56.190Z,10.40
2023-04-08T10:50:25.304Z,10.30
2023-04-08T10:53:02.212Z,10.40
2023-04-08T10:55:42.646Z,10.40
2023-04-08T10:58:19.798Z,10.40
2023-04-08T11:01:02.742Z,10.50
2023-04-08T11:03:37.923Z,10.60
2023-04-08T11:06:12.207Z,10.60
2023-04-08T11:08:51.406Z,10.60
2023-04-08T11:11:38.330Z,10.50
2023-04-08T11:14:11.309Z,10.60
2023-04-08T11:16:42.643Z,10.70
2023-04-08T11:19:20.137Z,10.70
2023-04-08T11:21:54.361Z,10.70
2023-04-08T11:24:27.343Z,10.70
2023-04-08T11:27:01.556Z,10.80
2023-04-08T11:29:41.982Z,10.80
2023-04-08T11:32:15.177Z,10.80
2023-04-08T11:34:55.006Z,10.80
2023-04-08T11:37:37.884Z,10.80
2023-04-08T11:40:15.417Z,10.80
2023-04-08T11:42:47.050Z,10.80
2023-04-08T11:45:25.850Z,10.90
2023-04-08T11:48:06.084Z,10.90
2023-04-08T11:50:36.553Z,10.90
2023-04-08T11:53:22.297Z,10.90
2023-04-08T11:56:00.049Z,10.90
2023-04-08T11:58:33.662Z,10.90
2023-04-08T12:01:07.658Z,10.90
2023-04-08T12:03:42.677Z,10.90
2023-04-08T12:06:28.948Z,11.00
2023-04-08T12:09:00.121Z,11.00
2023-04-08T12:11:41.329Z,11.00
2023-04-08T12:14:18.259Z,11.00
2023-04-08T12:16:57.604Z,11.00
2023-04-08T12:19:36.481Z,11.00
2023-04-08T12:22:12.599Z,11.00
2023-04-08T12:24:46.656Z,11.00
2023-04-08T12:27:24.588Z,11.00
2023-04-08T12:29:59.546Z,10.90
2023-04-08T12:32:32.814Z,10.90
2023-04-08T12:35:13.918Z,10.90
2023-04-08T12:37:50.714Z,11.00
2023-04-08T12:40:30.112Z,11.00
2023-04-08T12:43:10.699Z,10.90
2023-04-08T12:45:48.695Z,10.90
2023-04-08T12:48:22.997Z,10.90
2023-04-08T12:50:55.234Z,11.00
2023-04-08T12:53:39.165Z,11.00
2023-04-08T12:56:10.594Z,11.00
2023-04-08T12:58:46.387Z,11.00
2023-04-08T13:01:20.519Z,11.00
2023-04-08T13:04:00.362Z,11.00
2023-04-08T13:06:35.700Z,10.90
2023-04-08T13:09:08.547Z,10.90
2023-04-08T13:11:39.761Z,11.00
2023-04-08T13:14:17.761Z,11.00
2023-04-08T13:16:49.481Z,11.00
2023-04-08T13:19:24.122Z,11.10
2023-04-08T13:22:05.144Z,11.20
2023-04-08T13:24:42.061Z,11.20
2023-04-08T13:27:14.486Z,11.20
2023-04-08T13:29:52.265Z,11.20
2023-04-08T13:32:32.056Z,11.20
2023-04-08T13:35:07.751Z,11.20
2023-04-08T13:37:38.304Z,11.30
2023-04-08T13:40:15.244Z,11.30
2023-04-08T13:42:48.253Z,11.30
2023-04-08T13:45:27.187Z,11.40
2023-04-08T13:48:00.310Z,11.40
2023-04-08T13:50:34.396Z,11.40
2023-04-08T13:53:12.785Z,11.30
2023-04-08T13:55:43.142Z,11.30
2023-04-08T13:58:24.596Z,11.40
2023-04-08T14:01:03.021Z,11.50
2023-04-08T14:03:43.544Z,11.50
2023-04-08T14:06:18.254Z,11.50
2023-04-08T14:08:58.218Z,11.50
2023-04-08T14:11:29.844Z,11.50
2023-04-08T14:14:05.946Z,11.50
2023-04-08T14:16:44.027Z,11.50
2023-04-08T14:19:15.458Z,11.50
2023-04-08T14:21:47.677Z,11.50
2023-04-08T14:24:19.639Z,11.60
2023-04-08T14:26:55.848Z,11.60
2023-04-08T14:29:38.299Z,11.60
2023-04-08T14:32:14.756Z,11.60
2023-04-08T14:34:49.317Z,11.60
2023-04-08T14:37:28.668Z,11.70
2023-04-08T14:40:05.626Z,11.60
2023-04-08T14:42:36.668Z,11.70
2023-04-08T14:45:08.908Z,11.70
2023-04-08T14:47:44.426Z,11.80
2023-04-08T14:50:17.861Z,11.80
2023-04-08T14:52:52.134Z,11.80
2023-04-08T14:55:31.297Z,11.70
2023-04-08T14:58:06.330Z,11.70
2023-04-08T15:00:37.675Z,11.70
2023-04-08T15:03:15.918Z,11.70
2023-04-08T15:05:57.021Z,11.70
2023-04-08T15:08:32.580Z,11.70
2023-04-08T15:11:06.528Z,11.80
2023-04-08T15:13:46.154Z,11.80
2023-04-08T15:16:16.960Z,11.80
2023-04-08T15:18:58.030Z,11.80
2023-04-08T15:21:29.999Z,11.80
2023-04-08T15:24:00.675Z,11.80
2023-04-08T15:26:36.529Z,11.70
2023-04-08T15:29:14.010Z,11.70
2023-04-08T15:31:47.473Z,11.70
2023-04-08T15:34:24.590Z,11.70
2023-04-08T15:37:04.509Z,11.60
2023-04-08T15:39:36.580Z,11.60
2023-04-08T15:42:13.554Z,11.60
2023-04-08T15:44:58.987Z,11.60
2023-04-08T15:47:34.527Z,11.60
2023-04-08T15:50:19.657Z,11.60
2023-04-08T15:52:51.404Z,11.60
2023-04-08T15:55:30.488Z,11.60
2023-04-08T15:58:04.085Z,11.50
2023-04-08T16:00:36.324Z,11.60
2023-04-08T16:03:17.194Z,11.60
2023-04-08T16:05:50.128Z,11.60
2023-04-08T16:08:26.191Z,11.70
2023-04-08T16:11:07.173Z,11.60
2023-04-08T16:13:49.435Z,11.60
2023-04-08T16:16:19.645Z,11.60
2023-04-08T16:18:56.065Z,11.60
2023-04-08T16:21:38.904Z,11.60
2023-04-08T16:24:11.051Z,11.60
2023-04-08T16:26:44.516Z,11.60
2023-04-08T16:29:21.521Z,11.60
2023-04-08T16:31:55.326Z,11.60
2023-04-08T16:34:27.857Z,11.60
2023-04-08T16:36:59.963Z,11.60
2023-04-08T16:39:36.422Z,11.70
2023-04-08T16:42:11.407Z,11.70
2023-04-08T16:44:43.356Z,11.70
2023-04-08T16:47:17.252Z,11.70
2023-04-08T16:49:48.479Z,11.70
2023-04-08T16:52:24.785Z,11.60
2023-04-08T16:55:02.286Z,11.60
2023-04-08T16:57:35.287Z,11.60
2023-04-08T17:00:08.019Z,11.60
2023-04-08T17:02:41.083Z,11.50
2023-04-08T17:05:18.054Z,11.50
2023-04-08T17:07:56.196Z,11.40
2023-04-08T17:10:30.083Z,11.40
2023-04-08T17:12:59.949Z,11.30
2023-04-08T17:15:34.817Z,11.30
2023-04-08T17:18:07.908Z,11.20
2023-04-08T17:20:37.697Z,11.20
2023-04-08T17:23:22.508Z,11.20
2023-04-08T17:26:01.998Z,11.20
2023-04-08T17:28:40.867Z,11.20
2023-04-08T17:31:18.893Z,11.20
2023-04-08T17:33:57.708Z,11.20
2023-04-08T17:36:30.727Z,11.10
2023-04-08T17:39:05.664Z,11.10
2023-04-08T17:41:41.303Z,11.10
2023-04-08T17:44:19.394Z,11.10
2023-04-08T17:46:53.806Z,11.10
2023-04-08T17:49:29.594Z,11.00
2023-04-08T17:52:09.019Z,11.00
2023-04-08T17:54:44.531Z,11.00
2023-04-08T17:57:22.672Z,10.90
2023-04-08T17:59:52.867Z,11.00
2023-04-08T18:02:30.084Z,10.90
2023-04-08T18:05:04.408Z,10.90
2023-04-08T18:07:46.222Z,10.90
2023-04-08T18:10:33.631Z,10.90
2023-04-08T18:13:11.214Z,10.90
2023-04-08T18:15:46.810Z,10.90
2023-04-08T18:18:21.804Z,10.90
2023-04-08T18:21:07.977Z,10.90
2023-04-08T18:23:40.115Z,10.90
2023-04-08T18:26:18.903Z,10.90
2023-04-08T18:28:54.118Z,10.90
2023-04-08T18:31:29.014Z,10.90
2023-04-08T18:33:59.645Z,10.90
2023-04-08T18:36:39.775Z,10.90
2023-04-08T18:39:12.861Z,11.00
2023-04-08T18:41:59.293Z,11.00
2023-04-08T18:44:38.555Z,10.90
2023-04-08T18:47:15.276Z,10.90
2023-04-08T18:49:44.129Z,10.90
2023-04-08T18:52:24.969Z,10.80
2023-04-08T18:55:10.830Z,10.80
2023-04-08T18:57:53.774Z,10.80
2023-04-08T19:00:28.958Z,10.80
2023-04-08T19:09:39.615Z,10.60
2023-04-08T19:12:21.348Z,10.60
2023-04-08T19:15:22.160Z,10.60
2023-04-08T19:18:01.680Z,10.50
2023-04-08T19:20:32.767Z,10.50
2023-04-08T19:23:22.929Z,10.50
2023-04-08T19:26:00.598Z,10.40
2023-04-08T19:28:35.492Z,10.40
2023-04-08T19:31:42.732Z,10.40
2023-04-08T19:34:16.502Z,10.50
2023-04-08T19:36:47.844Z,10.40
2023-04-08T19:39:26.659Z,10.40
2023-04-08T19:44:52.966Z,10.40
2023-04-08T19:47:36.674Z,10.40
2023-04-08T19:50:16.882Z,10.30
2023-04-08T19:52:55.616Z,10.30
2023-04-08T19:55:28.699Z,10.20
2023-04-08T19:58:20.709Z,10.20
2023-04-08T20:04:07.014Z,10.20
2023-04-08T20:06:43.606Z,10.20
2023-04-08T20:09:16.623Z,10.20
2023-04-08T20:11:52.659Z,10.20
2023-04-08T20:14:22.392Z,10.20
2023-04-08T20:16:56.575Z,10.20
2023-04-08T20:19:33.220Z,10.20
2023-04-08T20:22:03.847Z,10.20
2023-04-08T20:24:42.100Z,10.20
2023-04-08T20:27:14.784Z,10.10
2023-04-08T20:29:46.912Z,10.10
2023-04-08T20:32:17.404Z,10.10
2023-04-08T20:35:06.074Z,10.00
2023-04-08T20:37:50.640Z,9.90
2023-04-08T20:40:37.002Z,9.80
2023-04-08T20:43:13.858Z,9.80
2023-04-08T20:45:48.220Z,9.70
2023-04-08T20:48:25.180Z,9.70
2023-04-08T20:51:15.990Z,9.60
2023-04-08T20:53:46.439Z,9.50
2023-04-08T20:56:22.278Z,9.50
2023-04-08T20:58:53.229Z,9.50
2023-04-08T21:01:29.073Z,9.40
2023-04-08T21:04:08.527Z,9.30
2023-04-08T21:06:44.511Z,9.30
2023-04-08T21:09:15.382Z,9.30
2023-04-08T21:11:52.072Z,9.20
2023-04-08T21:14:33.799Z,9.10
2023-04-08T21:17:13.033Z,9.00
2023-04-08T21:19:44.951Z,9.00
2023-04-08T21:22:22.400Z,8.90
2023-04-08T21:24:56.137Z,8.90
2023-04-08T21:27:27.012Z,8.80
2023-04-08T21:29:58.063Z,8.80
2023-04-08T21:32:38.344Z,8.70
2023-04-08T21:35:11.791Z,8.60
2023-04-08T21:37:49.750Z,8.60
2023-04-08T21:40:23.700Z,8.60
2023-04-08T21:43:04.696Z,8.60
2023-04-08T21:45:35.413Z,8.50
2023-04-08T21:48:14.946Z,8.50
2023-04-08T21:50:48.044Z,8.50
2023-04-08T21:53:34.949Z,8.50
2023-04-08T21:56:11.019Z,8.50
2023-04-08T21:58:42.217Z,8.50
2023-04-08T22:01:12.594Z,8.50
2023-04-08T22:03:58.065Z,8.40
2023-04-08T22:06:38.175Z,8.40
2023-04-08T22:09:15.744Z,8.30
2023-04-08T22:11:51.985Z,8.30
2023-04-08T22:14:30.718Z,8.20
2023-04-08T22:17:05.567Z,8.20
2023-04-08T22:19:46.874Z,8.10
2023-04-08T22:22:19.279Z,8.10
2023-04-08T22:25:03.808Z,8.10
2023-04-08T22:27:40.637Z,8.10
2023-04-08T22:30:24.238Z,8.10
2023-04-08T22:33:06.505Z,8.10
2023-04-08T22:35:44.971Z,8.10
2023-04-08T22:38:15.613Z,8.10
2023-04-08T22:40:55.004Z,8.10
2023-04-08T22:43:27.161Z,8.10
2023-04-08T22:46:03.790Z,8.10
2023-04-08T22:48:36.790Z,8.10
2023-04-08T22:51:10.620Z,8.10
2023-04-08T22:53:50.832Z,8.10
2023-04-08T22:56:29.213Z,8.20
2023-04-08T22:59:03.275Z,8.20
2023-04-08T23:01:34.546Z,8.20
2023-04-08T23:04:10.194Z,8.30
2023-04-08T23:06:44.083Z,8.30
2023-04-08T23:09:19.719Z,8.30
2023-04-08T23:11:57.117Z,8.30
2023-04-08T23:14:30.834Z,8.30
2023-04-08T23:17:10.809Z,8.30
2023-04-08T23:19:46.268Z,8.30
2023-04-08T23:22:24.148Z,8.30
2023-04-08T23:25:01.670Z,8.30
2023-04-08T23:27:32.391Z,8.30
2023-04-08T23:30:05.457Z,8.30
2023-04-08T23:32:42.812Z,8.30
2023-04-08T23:35:19.212Z,8.30
2023-04-08T23:37:59.164Z,8.30
2023-04-08T23:40:34.493Z,8.40
2023-04-08T23:43:05.327Z,8.40
2023-04-08T23:45:42.323Z,8.40
2023-04-08T23:48:16.015Z,8.40
2023-04-08T23:50:44.511Z,8.40
2023-04-08T23:53:19.178Z,8.40
2023-04-08T23:55:52.470Z,8.40
2023-04-08T23:58:32.052Z,8.30
